Terminal Aerodrome Forecast
Issued by NWS

Home | Current Version | Previous Version | Text Only | Print | Product List | Glossary Off
Versions: 1 2 3 4 5 6 7 8 9 10 11 12 13 14 15 16 17 18 19 20 21 22 23 24 25 26 27

000
FTUS43 KBIS 260500
TAFMOT
TAF
KMOT 260536Z 2606/2706 35004KT P6SM BKN035
     FM260900 04004KT P6SM SCT035 BKN150
     FM261200 08005KT P6SM SCT030 BKN120
     FM261600 07006KT P6SM SCT035 BKN080
     FM270100 11008KT P6SM SCT040 BKN070=

USA.gov is the U.S. government's official web portal to all federal, state and local government web resources and services.